createdAt,value
2018-12-21T00:01:27.476Z,131.80
2018-12-21T00:04:18.107Z,133.55
2018-12-21T00:07:08.497Z,132.63
2018-12-21T00:09:58.651Z,134.12
2018-12-21T00:12:51.085Z,131.12
2018-12-21T00:15:41.476Z,132.50
2018-12-21T00:18:32.614Z,133.45
2018-12-21T00:21:21.878Z,135.43
2018-12-21T00:24:11.804Z,137.32
2018-12-21T00:27:00.735Z,137.88
2018-12-21T00:29:49.425Z,136.88
2018-12-21T00:32:42.889Z,136.30
2018-12-21T00:35:36.922Z,142.93
2018-12-21T00:38:30.828Z,136.20
2018-12-21T00:41:23.624Z,137.97
2018-12-21T00:44:27.139Z,136.37
2018-12-21T00:47:18.194Z,130.32
2018-12-21T00:50:06.000Z,133.75
2018-12-21T00:52:54.463Z,132.67
2018-12-21T00:55:45.166Z,134.52
2018-12-21T00:58:33.428Z,138.85
2018-12-21T01:01:22.696Z,135.15
2018-12-21T01:04:10.866Z,136.80
2018-12-21T01:07:00.876Z,135.20
2018-12-21T01:09:49.160Z,136.40
2018-12-21T01:12:38.429Z,134.40
2018-12-21T01:15:27.132Z,136.80
2018-12-21T01:18:17.073Z,132.55
2018-12-21T01:21:05.748Z,137.00
2018-12-21T01:23:53.858Z,139.00
2018-12-21T01:26:42.393Z,134.43
2018-12-21T01:29:30.252Z,132.40
2018-12-21T01:32:17.973Z,142.05
2018-12-21T01:35:08.087Z,136.15
2018-12-21T01:37:55.950Z,142.37
2018-12-21T01:40:45.370Z,140.15
2018-12-21T01:43:33.325Z,133.75
2018-12-21T01:46:21.901Z,135.10
2018-12-21T01:49:10.524Z,138.07
2018-12-21T01:51:59.098Z,137.70
2018-12-21T01:54:47.038Z,137.40
2018-12-21T01:57:35.567Z,134.95
2018-12-21T02:00:23.767Z,138.50
2018-12-21T02:03:12.082Z,134.57
2018-12-21T02:05:59.508Z,134.20
2018-12-21T02:08:47.848Z,134.18
2018-12-21T02:11:35.353Z,141.25
2018-12-21T02:14:24.288Z,133.10
2018-12-21T02:17:12.317Z,134.22
2018-12-21T02:20:00.193Z,131.07
2018-12-21T02:22:49.424Z,134.65
2018-12-21T02:25:36.971Z,132.47
2018-12-21T02:28:25.148Z,128.47
2018-12-21T02:31:12.966Z,129.97
2018-12-21T02:34:01.934Z,132.50
2018-12-21T02:36:52.518Z,133.27
2018-12-21T02:39:40.101Z,131.93
2018-12-21T02:42:28.147Z,134.03
2018-12-21T02:45:16.045Z,130.50
2018-12-21T02:48:05.972Z,133.75
2018-12-21T02:50:54.661Z,131.07
2018-12-21T02:53:42.838Z,130.35
2018-12-21T02:56:31.157Z,128.72
2018-12-21T02:59:18.950Z,132.75
2018-12-21T03:02:07.547Z,130.37
2018-12-21T03:04:56.150Z,125.80
2018-12-21T03:07:43.943Z,124.62
2018-12-21T03:10:32.882Z,124.05
2018-12-21T03:13:20.864Z,125.85
2018-12-21T03:16:10.211Z,125.38
2018-12-21T03:18:58.358Z,124.07
2018-12-21T03:21:46.416Z,124.72
2018-12-21T03:24:34.084Z,121.15
2018-12-21T03:27:22.169Z,123.62
2018-12-21T03:30:11.771Z,125.60
2018-12-21T03:33:01.335Z,124.27
2018-12-21T03:35:49.737Z,119.42
2018-12-21T03:38:37.877Z,123.72
2018-12-21T03:41:26.675Z,118.72
2018-12-21T03:44:16.874Z,118.53
2018-12-21T03:47:04.601Z,116.70
2018-12-21T03:49:52.650Z,120.13
2018-12-21T03:52:40.319Z,121.62
2018-12-21T03:55:28.441Z,117.50
2018-12-21T03:58:16.364Z,116.22
2018-12-21T04:01:05.057Z,116.55
2018-12-21T04:03:52.520Z,116.97
2018-12-21T04:06:41.478Z,115.55
2018-12-21T04:09:29.487Z,113.37
2018-12-21T04:12:18.841Z,117.03
2018-12-21T04:15:07.284Z,114.10
2018-12-21T04:17:57.067Z,116.67
2018-12-21T04:20:48.308Z,112.12
2018-12-21T04:23:36.902Z,110.55
2018-12-21T04:26:25.169Z,109.22
2018-12-21T04:29:13.157Z,110.00
2018-12-21T04:32:01.126Z,112.50
2018-12-21T04:34:48.841Z,109.70
2018-12-21T04:37:36.705Z,105.75
2018-12-21T04:40:25.058Z,109.30
2018-12-21T04:43:12.451Z,110.20
2018-12-21T04:48:52.012Z,107.50
2018-12-21T04:51:40.378Z,105.95
2018-12-21T04:54:27.860Z,105.30
2018-12-21T04:57:15.966Z,106.87
2018-12-21T05:00:04.016Z,106.35
2018-12-21T05:02:51.548Z,105.95
2018-12-21T05:05:39.564Z,105.65
2018-12-21T05:08:28.584Z,104.87
2018-12-21T05:11:16.683Z,105.10
2018-12-21T05:14:07.955Z,102.10
2018-12-21T05:16:56.204Z,103.07
2018-12-21T05:19:45.558Z,103.75
2018-12-21T05:22:37.910Z,101.92
2018-12-21T05:25:27.369Z,103.97
2018-12-21T05:28:15.229Z,103.15
2018-12-21T05:31:03.588Z,103.42
2018-12-21T05:33:57.619Z,97.55
2018-12-21T05:36:46.214Z,99.20
2018-12-21T05:39:35.517Z,98.72
2018-12-21T05:42:23.940Z,101.07
2018-12-21T05:45:13.116Z,98.70
2018-12-21T05:48:03.075Z,96.30
2018-12-21T05:50:53.103Z,92.72
2018-12-21T05:53:43.224Z,92.88
2018-12-21T05:56:32.477Z,94.58
2018-12-21T05:59:27.258Z,95.28
2018-12-21T06:02:15.664Z,93.07
2018-12-21T06:05:04.047Z,91.37
2018-12-21T06:07:55.254Z,89.83
2018-12-21T06:10:45.514Z,91.67
2018-12-21T06:13:36.316Z,92.05
2018-12-21T06:16:27.394Z,89.37
2018-12-21T06:19:16.317Z,89.17
2018-12-21T06:22:04.959Z,84.10
2018-12-21T06:24:52.764Z,87.40
2018-12-21T06:27:40.723Z,85.20
2018-12-21T06:33:22.481Z,83.55
2018-12-21T06:36:15.454Z,83.45
2018-12-21T06:39:04.922Z,79.30
2018-12-21T06:41:53.499Z,82.27
2018-12-21T06:44:44.311Z,83.37
2018-12-21T06:47:32.443Z,81.63
2018-12-21T06:50:24.318Z,82.17
2018-12-21T06:53:18.047Z,79.92
2018-12-21T06:56:07.329Z,78.70
2018-12-21T06:59:01.163Z,79.25
2018-12-21T07:01:52.151Z,78.72
2018-12-21T07:04:43.346Z,73.17
2018-12-21T07:07:33.606Z,78.72
2018-12-21T07:10:22.928Z,78.70
2018-12-21T07:13:14.558Z,75.67
2018-12-21T07:16:03.225Z,72.40
2018-12-21T07:18:53.129Z,75.57
2018-12-21T07:21:48.660Z,73.80
2018-12-21T07:24:36.272Z,72.65
2018-12-21T07:27:24.630Z,72.45
2018-12-21T07:30:15.079Z,73.80
2018-12-21T07:33:03.646Z,72.25
2018-12-21T07:35:51.830Z,72.55
2018-12-21T07:38:41.148Z,70.35
2018-12-21T07:41:29.298Z,71.55
2018-12-21T07:44:17.166Z,68.90
2018-12-21T07:47:05.788Z,68.25
2018-12-21T07:50:02.436Z,70.12
2018-12-21T07:52:50.992Z,69.95
2018-12-21T07:55:42.699Z,66.40
2018-12-21T07:58:33.804Z,64.12
2018-12-21T08:01:23.423Z,68.17
2018-12-21T08:04:13.375Z,64.90
2018-12-21T08:07:07.917Z,65.08
2018-12-21T08:09:57.978Z,64.53
2018-12-21T08:12:50.893Z,65.05
2018-12-21T08:15:41.832Z,64.10
2018-12-21T08:18:30.483Z,64.95
2018-12-21T08:21:18.347Z,62.53
2018-12-21T08:24:06.713Z,64.07
2018-12-21T08:26:54.739Z,62.10
2018-12-21T08:29:42.749Z,61.92
2018-12-21T08:32:30.959Z,60.78
2018-12-21T08:35:20.370Z,61.83
2018-12-21T08:38:08.490Z,60.98
2018-12-21T08:40:57.583Z,60.08
2018-12-21T08:43:50.697Z,60.73
2018-12-21T08:46:38.977Z,59.27
2018-12-21T08:49:26.391Z,60.25
2018-12-21T08:52:16.223Z,58.78
2018-12-21T08:55:05.879Z,58.70
2018-12-21T08:57:56.207Z,59.67
2018-12-21T09:00:46.103Z,59.10
2018-12-21T09:03:36.464Z,58.75
2018-12-21T09:06:24.599Z,57.73
2018-12-21T09:09:15.601Z,57.27
2018-12-21T09:12:04.928Z,57.58
2018-12-21T09:14:54.313Z,56.37
2018-12-21T09:17:43.477Z,56.02
2018-12-21T09:20:32.057Z,56.02
2018-12-21T09:23:21.609Z,55.23
2018-12-21T09:26:11.521Z,55.83
2018-12-21T09:28:59.802Z,55.92
2018-12-21T09:31:49.021Z,56.68
2018-12-21T09:34:37.598Z,56.50
2018-12-21T09:37:25.907Z,54.93
2018-12-21T09:40:16.450Z,54.80
2018-12-21T09:43:05.599Z,54.42
2018-12-21T09:45:53.426Z,56.30
2018-12-21T09:48:43.430Z,53.60
2018-12-21T09:51:30.901Z,53.17
2018-12-21T09:54:21.945Z,54.33
2018-12-21T09:57:10.593Z,53.25
2018-12-21T10:00:00.284Z,54.98
2018-12-21T10:02:48.532Z,53.92
2018-12-21T10:05:36.891Z,53.58
2018-12-21T10:08:27.078Z,53.05
2018-12-21T10:11:17.435Z,52.03
2018-12-21T10:14:04.975Z,52.70
2018-12-21T10:16:53.823Z,54.67
2018-12-21T10:19:42.836Z,52.93
2018-12-21T10:22:32.794Z,52.45
2018-12-21T10:25:21.446Z,50.17
2018-12-21T10:28:12.119Z,51.48
2018-12-21T10:31:01.917Z,50.88
2018-12-21T10:33:50.412Z,51.18
2018-12-21T10:36:41.182Z,50.10
2018-12-21T10:39:34.466Z,49.40
2018-12-21T10:42:24.052Z,48.95
2018-12-21T10:45:14.757Z,48.33
2018-12-21T10:48:04.959Z,49.30
2018-12-21T10:51:09.308Z,50.38
2018-12-21T10:54:00.535Z,50.43
2018-12-21T10:56:50.193Z,48.87
2018-12-21T10:59:44.541Z,48.80
2018-12-21T11:02:35.729Z,49.55
2018-12-21T11:05:27.512Z,47.35
2018-12-21T11:08:16.254Z,47.70
2018-12-21T11:11:05.099Z,47.38
2018-12-21T11:13:54.328Z,48.10
2018-12-21T11:16:43.073Z,47.98
2018-12-21T11:19:33.675Z,46.65
2018-12-21T11:22:22.664Z,49.10
2018-12-21T11:25:15.498Z,46.30
2018-12-21T11:28:08.091Z,45.38
2018-12-21T11:30:57.502Z,44.05
2018-12-21T11:33:49.588Z,44.40
2018-12-21T11:36:42.026Z,45.45
2018-12-21T11:39:30.362Z,45.88
2018-12-21T11:42:18.909Z,46.02
2018-12-21T11:45:08.719Z,44.53
2018-12-21T11:47:57.068Z,46.42
2018-12-21T11:50:46.188Z,44.95
2018-12-21T11:53:34.396Z,45.83
2018-12-21T11:56:23.518Z,50.15
2018-12-21T11:59:12.174Z,43.95
2018-12-21T12:02:00.015Z,43.00
2018-12-21T12:04:51.718Z,50.10
2018-12-21T12:07:39.063Z,49.65
2018-12-21T12:10:27.340Z,46.48
2018-12-21T12:13:14.809Z,68.12
2018-12-21T12:16:03.122Z,84.80
2018-12-21T12:18:52.039Z,150.32
2018-12-21T12:21:41.794Z,188.62
2018-12-21T12:24:30.052Z,275.70
2018-12-21T12:27:18.981Z,282.77
2018-12-21T12:30:09.074Z,287.23
2018-12-21T12:32:58.794Z,383.40
2018-12-21T12:35:46.835Z,381.63
2018-12-21T12:38:36.377Z,369.62
2018-12-21T12:41:26.236Z,385.43
2018-12-21T12:44:16.215Z,408.32
2018-12-21T12:47:05.280Z,395.80
2018-12-21T12:49:53.630Z,401.73
2018-12-21T12:52:45.737Z,450.30
2018-12-21T12:55:34.868Z,451.45
2018-12-21T12:58:23.458Z,468.17
2018-12-21T13:01:12.594Z,494.37
2018-12-21T13:04:01.466Z,490.40
2018-12-21T13:06:52.210Z,480.35
2018-12-21T13:09:41.040Z,478.77
2018-12-21T13:12:32.953Z,472.95
2018-12-21T13:15:21.778Z,465.98
2018-12-21T13:18:11.419Z,473.80
2018-12-21T13:21:00.325Z,469.67
2018-12-21T13:23:49.904Z,459.43
2018-12-21T13:26:41.073Z,455.48
2018-12-21T13:29:33.394Z,450.22
2018-12-21T13:32:28.536Z,444.50
2018-12-21T13:35:17.393Z,443.73
2018-12-21T13:38:06.696Z,431.25
2018-12-21T13:40:57.840Z,427.40
2018-12-21T13:43:47.366Z,418.27
2018-12-21T13:46:37.574Z,418.90
2018-12-21T13:49:26.976Z,412.75
2018-12-21T13:52:15.763Z,410.43
2018-12-21T13:55:04.946Z,410.57
2018-12-21T13:57:54.509Z,415.23
2018-12-21T14:00:43.732Z,403.02
2018-12-21T14:03:33.314Z,401.80
2018-12-21T14:06:22.738Z,400.80
2018-12-21T14:09:13.542Z,394.73
2018-12-21T14:12:02.172Z,392.02
2018-12-21T14:14:51.290Z,390.10
2018-12-21T14:17:39.894Z,390.62
2018-12-21T14:20:29.206Z,378.67
2018-12-21T14:23:18.357Z,380.12
2018-12-21T14:26:07.619Z,374.75
2018-12-21T14:28:56.880Z,376.55
2018-12-21T14:31:46.045Z,377.73
2018-12-21T14:34:35.024Z,368.57
2018-12-21T14:37:24.088Z,369.98
2018-12-21T14:40:13.060Z,377.80
2018-12-21T14:43:03.328Z,372.15
2018-12-21T14:45:52.852Z,367.48
2018-12-21T14:48:42.157Z,366.90
2018-12-21T14:51:31.410Z,367.93
2018-12-21T14:54:21.295Z,361.32
2018-12-21T14:57:11.325Z,368.12
2018-12-21T15:00:00.619Z,360.50
2018-12-21T15:02:49.385Z,359.52
2018-12-21T15:05:38.069Z,363.92
2018-12-21T15:08:27.034Z,357.27
2018-12-21T15:11:15.129Z,353.37
2018-12-21T15:14:03.039Z,356.77
2018-12-21T15:16:51.989Z,352.87
2018-12-21T15:19:40.352Z,352.50
2018-12-21T15:22:28.346Z,351.75
2018-12-21T15:25:16.266Z,342.93
2018-12-21T15:28:07.453Z,345.97
2018-12-21T15:30:57.107Z,334.92
2018-12-21T15:33:45.914Z,336.70
2018-12-21T15:36:34.452Z,339.45
2018-12-21T15:39:26.916Z,334.15
2018-12-21T15:42:19.095Z,330.25
2018-12-21T15:45:08.477Z,330.73
2018-12-21T15:47:56.717Z,328.37
2018-12-21T15:50:46.309Z,323.75
2018-12-21T15:53:35.148Z,325.18
2018-12-21T15:56:28.393Z,322.75
2018-12-21T15:59:18.533Z,330.50
2018-12-21T16:02:09.264Z,315.98
2018-12-21T16:05:00.268Z,320.27
2018-12-21T16:07:48.801Z,320.37
2018-12-21T16:10:36.809Z,319.95
2018-12-21T16:13:30.399Z,311.50
2018-12-21T16:16:24.310Z,308.55
2018-12-21T16:19:17.477Z,308.40
2018-12-21T16:22:07.109Z,311.40
2018-12-21T16:24:59.225Z,311.75
2018-12-21T16:27:49.584Z,307.57
2018-12-21T16:30:43.004Z,303.98
2018-12-21T16:33:31.933Z,305.62
2018-12-21T16:36:19.864Z,303.95
2018-12-21T16:39:10.149Z,299.32
2018-12-21T16:41:59.655Z,295.27
2018-12-21T16:44:47.601Z,299.88
2018-12-21T16:47:35.460Z,294.57
2018-12-21T16:50:28.296Z,290.73
2018-12-21T16:53:16.695Z,291.08
2018-12-21T16:56:12.307Z,297.60
2018-12-21T16:58:57.740Z,289.35
2018-12-21T17:01:46.318Z,288.32
2018-12-21T17:04:35.962Z,286.12
2018-12-21T17:07:23.722Z,285.38
2018-12-21T17:10:22.713Z,285.90
2018-12-21T17:13:10.981Z,284.43
2018-12-21T17:15:58.599Z,283.68
2018-12-21T17:18:46.979Z,279.05
2018-12-21T17:21:35.445Z,279.07
2018-12-21T17:24:25.241Z,278.30
2018-12-21T17:27:14.541Z,276.32
2018-12-21T17:30:04.084Z,271.75
2018-12-21T17:32:53.098Z,275.93
2018-12-21T17:35:44.595Z,270.30
2018-12-21T17:38:33.311Z,273.93
2018-12-21T17:41:22.541Z,270.05
2018-12-21T17:44:17.747Z,271.82
2018-12-21T17:47:07.221Z,261.73
2018-12-21T17:49:55.069Z,264.15
2018-12-21T17:52:42.928Z,263.12
2018-12-21T17:55:31.710Z,258.27
2018-12-21T17:58:21.391Z,259.65
2018-12-21T18:01:12.443Z,253.55
2018-12-21T18:04:13.938Z,260.23
2018-12-21T18:07:02.344Z,254.72
2018-12-21T18:09:50.774Z,254.10
2018-12-21T18:12:39.256Z,253.07
2018-12-21T18:15:27.811Z,248.13
2018-12-21T18:18:15.769Z,251.02
2018-12-21T18:21:09.117Z,246.75
2018-12-21T18:23:57.335Z,246.87
2018-12-21T18:26:45.371Z,240.18
2018-12-21T18:29:33.274Z,244.75
2018-12-21T18:32:39.714Z,241.38
2018-12-21T18:35:28.476Z,239.75
2018-12-21T18:38:23.855Z,233.15
2018-12-21T18:41:13.006Z,236.92
2018-12-21T18:44:05.176Z,234.05
2018-12-21T18:46:53.141Z,236.22
2018-12-21T18:49:44.421Z,227.90
2018-12-21T18:52:33.244Z,231.35
2018-12-21T18:55:22.600Z,229.72
2018-12-21T18:58:10.925Z,222.75
2018-12-21T19:00:59.580Z,229.28
2018-12-21T19:03:48.962Z,229.53
2018-12-21T19:06:36.540Z,225.28
2018-12-21T19:09:25.582Z,222.17
2018-12-21T19:12:13.651Z,222.00
2018-12-21T19:15:02.092Z,217.13
2018-12-21T19:17:51.245Z,213.77
2018-12-21T19:20:40.474Z,216.60
2018-12-21T19:23:28.477Z,210.25
2018-12-21T19:26:16.823Z,212.15
2018-12-21T19:29:08.462Z,210.05
2018-12-21T19:31:57.381Z,209.95
2018-12-21T19:34:45.411Z,206.70
2018-12-21T19:37:36.180Z,201.65
2018-12-21T19:40:24.420Z,205.25
2018-12-21T19:43:12.619Z,194.47
2018-12-21T19:46:01.294Z,203.12
2018-12-21T19:48:50.616Z,195.30
2018-12-21T19:51:44.850Z,200.32
2018-12-21T19:54:33.398Z,194.55
2018-12-21T19:57:21.111Z,189.40
2018-12-21T20:00:10.012Z,191.73
2018-12-21T20:02:58.800Z,186.65
2018-12-21T20:05:47.013Z,193.55
2018-12-21T20:08:34.727Z,186.57
2018-12-21T20:11:22.482Z,184.18
2018-12-21T20:14:15.228Z,184.67
2018-12-21T20:17:03.690Z,182.22
2018-12-21T20:19:52.310Z,181.47
2018-12-21T20:22:40.194Z,177.80
2018-12-21T20:25:28.356Z,175.87
2018-12-21T20:28:17.142Z,179.75
2018-12-21T20:31:05.597Z,176.60
2018-12-21T20:33:53.888Z,176.85
2018-12-21T20:36:49.400Z,178.23
2018-12-21T20:39:46.312Z,175.10
2018-12-21T20:42:35.006Z,170.02
2018-12-21T20:45:28.244Z,168.97
2018-12-21T20:48:16.643Z,169.72
2018-12-21T20:51:05.435Z,166.07
2018-12-21T20:53:54.320Z,169.17
2018-12-21T20:56:50.189Z,162.15
2018-12-21T20:59:38.711Z,161.50
2018-12-21T21:02:26.965Z,162.65
2018-12-21T21:05:14.931Z,160.82
2018-12-21T21:08:02.866Z,159.07
2018-12-21T21:10:50.989Z,155.05
2018-12-21T21:13:44.133Z,158.93
2018-12-21T21:16:31.674Z,160.15
2018-12-21T21:19:19.617Z,155.12
2018-12-21T21:22:07.731Z,155.95
2018-12-21T21:24:55.622Z,152.53
2018-12-21T21:27:49.620Z,154.30
2018-12-21T21:30:40.661Z,152.70
2018-12-21T21:33:28.832Z,147.93
2018-12-21T21:36:23.211Z,149.85
2018-12-21T21:39:20.898Z,145.05
2018-12-21T21:42:13.436Z,151.30
2018-12-21T21:45:00.825Z,148.65
2018-12-21T21:47:49.188Z,149.85
2018-12-21T21:50:37.215Z,147.32
2018-12-21T21:53:29.173Z,146.87
2018-12-21T21:56:22.478Z,144.10
2018-12-21T21:59:10.667Z,142.55
2018-12-21T22:01:58.617Z,142.30
2018-12-21T22:04:47.113Z,138.28
2018-12-21T22:07:37.008Z,142.77
2018-12-21T22:10:24.984Z,140.73
2018-12-21T22:13:13.172Z,141.68
2018-12-21T22:16:01.213Z,143.60
2018-12-21T22:18:50.077Z,140.00
2018-12-21T22:21:40.603Z,138.68
2018-12-21T22:24:29.286Z,138.35
2018-12-21T22:27:17.367Z,140.15
2018-12-21T22:30:10.363Z,137.12
2018-12-21T22:32:58.115Z,135.48
2018-12-21T22:35:46.184Z,140.70
2018-12-21T22:38:38.673Z,133.78
2018-12-21T22:41:28.456Z,135.12
2018-12-21T22:44:21.792Z,135.25
2018-12-21T22:47:14.254Z,132.35
2018-12-21T22:50:06.909Z,140.22
2018-12-21T22:52:55.079Z,135.45
2018-12-21T22:55:43.023Z,136.65
2018-12-21T22:58:31.194Z,142.93
2018-12-21T23:01:26.234Z,135.78
2018-12-21T23:04:15.164Z,137.07
2018-12-21T23:07:03.044Z,134.78
2018-12-21T23:09:50.962Z,132.10
2018-12-21T23:12:38.751Z,132.85
2018-12-21T23:15:26.734Z,130.45
2018-12-21T23:18:14.842Z,129.00
2018-12-21T23:21:02.706Z,128.65
2018-12-21T23:24:00.208Z,130.30
2018-12-21T23:26:48.080Z,131.45
2018-12-21T23:29:37.653Z,127.58
2018-12-21T23:32:26.020Z,128.80
2018-12-21T23:35:14.737Z,131.27
2018-12-21T23:38:06.575Z,128.50
2018-12-21T23:40:54.959Z,127.82
2018-12-21T23:43:45.161Z,127.70
2018-12-21T23:46:34.672Z,128.10
2018-12-21T23:49:22.795Z,129.82
2018-12-21T23:52:10.638Z,127.87
2018-12-21T23:54:58.600Z,128.00
2018-12-21T23:57:46.787Z,132.47
